sensor_id;sensor_type;location;lat;lon;timestamp;P1;durP1;ratioP1;P2;durP2;ratioP2
80868;SDS011;70295;40.182;44.498;2023-09-07T00:00:09;18.1;;;7.6;;
80868;SDS011;70295;40.182;44.498;2023-09-07T00:02:08;18.8;;;8.9;;
80868;SDS011;70295;40.182;44.498;2023-09-07T00:04:08;16.1;;;8;;
80868;SDS011;70295;40.182;44.498;2023-09-07T00:06:08;21.1;;;9.1;;
80868;SDS011;70295;40.182;44.498;2023-09-07T00:08:08;27.3;;;9.8;;
80868;SDS011;70295;40.182;44.498;2023-09-07T00:10:08;25.8;;;9.7;;
80868;SDS011;70295;40.182;44.498;2023-09-07T00:12:08;19.9;;;8.9;;
80868;SDS011;70295;40.182;44.498;2023-09-07T00:14:08;25;;;8.8;;
80868;SDS011;70295;40.182;44.498;2023-09-07T00:16:08;26.2;;;9.5;;
80868;SDS011;70295;40.182;44.498;2023-09-07T00:18:08;21.6;;;9.1;;
80868;SDS011;70295;40.182;44.498;2023-09-07T00:20:08;25.7;;;9.1;;
80868;SDS011;70295;40.182;44.498;2023-09-07T00:22:08;24.1;;;9.6;;
80868;SDS011;70295;40.182;44.498;2023-09-07T00:24:08;21.3;;;9.1;;
80868;SDS011;70295;40.182;44.498;2023-09-07T00:26:08;19.6;;;8.8;;
80868;SDS011;70295;40.182;44.498;2023-09-07T00:28:08;19.8;;;8.1;;
80868;SDS011;70295;40.182;44.498;2023-09-07T00:30:08;17.3;;;7.8;;
80868;SDS011;70295;40.182;44.498;2023-09-07T00:36:03;18.6;;;7.7;;
80868;SDS011;70295;40.182;44.498;2023-09-07T00:38:01;18.7;;;7.9;;
80868;SDS011;70295;40.182;44.498;2023-09-07T00:40:01;18;;;7.5;;
80868;SDS011;70295;40.182;44.498;2023-09-07T00:50:43;14.8;;;6.7;;
80868;SDS011;70295;40.182;44.498;2023-09-07T00:52:44;14.7;;;7.2;;
80868;SDS011;70295;40.182;44.498;2023-09-07T00:54:44;14.8;;;6.7;;
80868;SDS011;70295;40.182;44.498;2023-09-07T00:56:43;17.6;;;7.7;;
80868;SDS011;70295;40.182;44.498;2023-09-07T00:58:43;13.5;;;6.6;;
80868;SDS011;70295;40.182;44.498;2023-09-07T01:00:43;17.2;;;6.8;;
80868;SDS011;70295;40.182;44.498;2023-09-07T01:02:43;13.9;;;6.9;;
80868;SDS011;70295;40.182;44.498;2023-09-07T01:04:43;14.8;;;6.4;;
80868;SDS011;70295;40.182;44.498;2023-09-07T01:08:46;11.8;;;6.3;;
80868;SDS011;70295;40.182;44.498;2023-09-07T01:10:43;14.2;;;6.2;;
80868;SDS011;70295;40.182;44.498;2023-09-07T01:12:43;14.1;;;6.3;;
80868;SDS011;70295;40.182;44.498;2023-09-07T01:14:43;12.8;;;6.2;;
80868;SDS011;70295;40.182;44.498;2023-09-07T01:16:43;13.1;;;6.4;;
80868;SDS011;70295;40.182;44.498;2023-09-07T01:18:44;15;;;6.7;;
80868;SDS011;70295;40.182;44.498;2023-09-07T01:20:43;13.2;;;6.5;;
80868;SDS011;70295;40.182;44.498;2023-09-07T01:22:43;13.8;;;6.6;;
80868;SDS011;70295;40.182;44.498;2023-09-07T01:24:44;13.2;;;7.1;;
80868;SDS011;70295;40.182;44.498;2023-09-07T01:26:43;13.6;;;7.3;;
80868;SDS011;70295;40.182;44.498;2023-09-07T01:28:43;14.2;;;6.9;;
80868;SDS011;70295;40.182;44.498;2023-09-07T01:30:43;15.1;;;6.8;;
80868;SDS011;70295;40.182;44.498;2023-09-07T01:32:43;13;;;6.7;;
80868;SDS011;70295;40.182;44.498;2023-09-07T01:34:43;16.2;;;6.8;;
80868;SDS011;70295;40.182;44.498;2023-09-07T01:36:44;13.9;;;6.4;;
80868;SDS011;70295;40.182;44.498;2023-09-07T01:38:43;15;;;7.1;;
80868;SDS011;70295;40.182;44.498;2023-09-07T01:40:43;15.3;;;7;;
80868;SDS011;70295;40.182;44.498;2023-09-07T01:42:43;12.3;;;6.7;;
80868;SDS011;70295;40.182;44.498;2023-09-07T01:44:43;17;;;7;;
80868;SDS011;70295;40.182;44.498;2023-09-07T01:46:43;14.4;;;7.3;;
80868;SDS011;70295;40.182;44.498;2023-09-07T01:48:43;16.2;;;6.4;;
80868;SDS011;70295;40.182;44.498;2023-09-07T01:50:43;15.7;;;6.5;;
80868;SDS011;70295;40.182;44.498;2023-09-07T01:53:24;11.8;;;6.7;;
80868;SDS011;70295;40.182;44.498;2023-09-07T01:55:24;11.1;;;6.3;;
80868;SDS011;70295;40.182;44.498;2023-09-07T01:57:24;12.7;;;6.7;;
80868;SDS011;70295;40.182;44.498;2023-09-07T01:59:24;16.9;;;6.6;;
80868;SDS011;70295;40.182;44.498;2023-09-07T02:01:25;14.1;;;6.8;;
80868;SDS011;70295;40.182;44.498;2023-09-07T02:03:24;14.9;;;6.7;;
80868;SDS011;70295;40.182;44.498;2023-09-07T02:05:24;14.7;;;6.6;;
80868;SDS011;70295;40.182;44.498;2023-09-07T02:07:24;13.8;;;6.5;;
80868;SDS011;70295;40.182;44.498;2023-09-07T02:09:24;14.3;;;7.2;;
80868;SDS011;70295;40.182;44.498;2023-09-07T02:11:24;13.7;;;6.7;;
80868;SDS011;70295;40.182;44.498;2023-09-07T02:13:24;14.4;;;6.8;;
80868;SDS011;70295;40.182;44.498;2023-09-07T02:15:24;16.9;;;7.5;;
80868;SDS011;70295;40.182;44.498;2023-09-07T02:17:24;12.5;;;6.7;;
80868;SDS011;70295;40.182;44.498;2023-09-07T02:19:24;15.9;;;7.2;;
80868;SDS011;70295;40.182;44.498;2023-09-07T02:21:24;15.8;;;6.8;;
80868;SDS011;70295;40.182;44.498;2023-09-07T02:23:24;16.2;;;7.5;;
80868;SDS011;70295;40.182;44.498;2023-09-07T02:25:24;14.6;;;6.9;;
80868;SDS011;70295;40.182;44.498;2023-09-07T02:27:24;14.5;;;6.5;;
80868;SDS011;70295;40.182;44.498;2023-09-07T02:29:24;13;;;7.1;;
80868;SDS011;70295;40.182;44.498;2023-09-07T02:31:24;13.1;;;6.4;;
80868;SDS011;70295;40.182;44.498;2023-09-07T02:33:24;13.5;;;6.7;;
80868;SDS011;70295;40.182;44.498;2023-09-07T02:36:59;14.6;;;7.2;;
80868;SDS011;70295;40.182;44.498;2023-09-07T02:38:58;13.9;;;6.4;;
80868;SDS011;70295;40.182;44.498;2023-09-07T02:40:57;10;;;6;;
80868;SDS011;70295;40.182;44.498;2023-09-07T02:42:57;10.8;;;6.6;;
80868;SDS011;70295;40.182;44.498;2023-09-07T02:44:57;10.6;;;6.2;;
80868;SDS011;70295;40.182;44.498;2023-09-07T02:46:57;14.2;;;6.7;;
80868;SDS011;70295;40.182;44.498;2023-09-07T02:48:57;11.7;;;6.3;;
80868;SDS011;70295;40.182;44.498;2023-09-07T02:50:57;12.4;;;6.9;;
80868;SDS011;70295;40.182;44.498;2023-09-07T02:52:57;11.2;;;6.2;;
80868;SDS011;70295;40.182;44.498;2023-09-07T02:56:28;15.2;;;6.6;;
80868;SDS011;70295;40.182;44.498;2023-09-07T02:58:28;14.1;;;6.2;;
80868;SDS011;70295;40.182;44.498;2023-09-07T03:00:28;13.4;;;6.2;;
80868;SDS011;70295;40.182;44.498;2023-09-07T03:02:28;13.7;;;6.7;;
80868;SDS011;70295;40.182;44.498;2023-09-07T03:04:28;13.1;;;6.1;;
80868;SDS011;70295;40.182;44.498;2023-09-07T03:06:28;14.5;;;6.2;;
80868;SDS011;70295;40.182;44.498;2023-09-07T03:08:28;10.7;;;6.2;;
80868;SDS011;70295;40.182;44.498;2023-09-07T03:10:28;10.7;;;5.7;;
80868;SDS011;70295;40.182;44.498;2023-09-07T03:12:28;10.4;;;5.6;;
80868;SDS011;70295;40.182;44.498;2023-09-07T03:14:28;12.9;;;5.4;;
80868;SDS011;70295;40.182;44.498;2023-09-07T03:16:28;11.4;;;6.3;;
80868;SDS011;70295;40.182;44.498;2023-09-07T03:18:28;11.9;;;6.1;;
80868;SDS011;70295;40.182;44.498;2023-09-07T03:20:28;11.4;;;5.8;;
80868;SDS011;70295;40.182;44.498;2023-09-07T03:22:28;18.1;;;6.3;;
80868;SDS011;70295;40.182;44.498;2023-09-07T03:24:28;14.4;;;6.2;;
80868;SDS011;70295;40.182;44.498;2023-09-07T03:26:28;15.8;;;7.1;;
80868;SDS011;70295;40.182;44.498;2023-09-07T03:28:28;14.5;;;6.3;;
80868;SDS011;70295;40.182;44.498;2023-09-07T03:30:28;11.3;;;6.2;;
80868;SDS011;70295;40.182;44.498;2023-09-07T03:32:28;13.9;;;6.8;;
80868;SDS011;70295;40.182;44.498;2023-09-07T03:34:28;13.2;;;6.4;;
80868;SDS011;70295;40.182;44.498;2023-09-07T03:36:28;14;;;6.7;;
80868;SDS011;70295;40.182;44.498;2023-09-07T03:38:28;13.9;;;6.5;;
80868;SDS011;70295;40.182;44.498;2023-09-07T03:40:28;15.5;;;7.3;;
80868;SDS011;70295;40.182;44.498;2023-09-07T03:42:28;15.3;;;7.2;;
80868;SDS011;70295;40.182;44.498;2023-09-07T03:44:28;14.2;;;6.7;;
80868;SDS011;70295;40.182;44.498;2023-09-07T03:46:28;14.1;;;6.4;;
80868;SDS011;70295;40.182;44.498;2023-09-07T03:48:28;15.3;;;6.9;;
80868;SDS011;70295;40.182;44.498;2023-09-07T03:50:28;12.1;;;6.6;;
80868;SDS011;70295;40.182;44.498;2023-09-07T03:52:28;15.9;;;7.4;;
80868;SDS011;70295;40.182;44.498;2023-09-07T03:54:30;15;;;6.8;;
80868;SDS011;70295;40.182;44.498;2023-09-07T03:56:28;12.3;;;6.8;;
80868;SDS011;70295;40.182;44.498;2023-09-07T03:58:28;12.3;;;7.2;;
80868;SDS011;70295;40.182;44.498;2023-09-07T04:00:28;13.3;;;6.3;;
80868;SDS011;70295;40.182;44.498;2023-09-07T04:02:28;14.2;;;6.6;;
80868;SDS011;70295;40.182;44.498;2023-09-07T04:04:28;14.7;;;6.8;;
80868;SDS011;70295;40.182;44.498;2023-09-07T04:06:28;12.2;;;6.6;;
80868;SDS011;70295;40.182;44.498;2023-09-07T04:08:28;16.8;;;6.7;;
80868;SDS011;70295;40.182;44.498;2023-09-07T04:10:28;13.4;;;7.2;;
80868;SDS011;70295;40.182;44.498;2023-09-07T04:12:28;14;;;7;;
80868;SDS011;70295;40.182;44.498;2023-09-07T04:14:28;12.9;;;6.9;;
80868;SDS011;70295;40.182;44.498;2023-09-07T04:16:28;17.7;;;7.5;;
80868;SDS011;70295;40.182;44.498;2023-09-07T04:18:27;16.6;;;7.3;;
80868;SDS011;70295;40.182;44.498;2023-09-07T04:20:28;14.3;;;7;;
80868;SDS011;70295;40.182;44.498;2023-09-07T04:22:28;15.2;;;7.3;;
80868;SDS011;70295;40.182;44.498;2023-09-07T04:24:28;16.2;;;7.7;;
80868;SDS011;70295;40.182;44.498;2023-09-07T04:26:28;22.1;;;7.8;;
80868;SDS011;70295;40.182;44.498;2023-09-07T04:28:28;13.6;;;7.2;;
80868;SDS011;70295;40.182;44.498;2023-09-07T04:30:28;17.6;;;7.6;;
80868;SDS011;70295;40.182;44.498;2023-09-07T04:37:43;12;;;7.1;;
80868;SDS011;70295;40.182;44.498;2023-09-07T04:39:42;16.6;;;7.9;;
80868;SDS011;70295;40.182;44.498;2023-09-07T04:41:42;13.7;;;7.2;;
80868;SDS011;70295;40.182;44.498;2023-09-07T04:43:44;17;;;7.8;;
80868;SDS011;70295;40.182;44.498;2023-09-07T04:47:42;15.7;;;8.1;;
80868;SDS011;70295;40.182;44.498;2023-09-07T04:49:42;13.4;;;7.4;;
80868;SDS011;70295;40.182;44.498;2023-09-07T04:51:42;14.8;;;7.7;;
80868;SDS011;70295;40.182;44.498;2023-09-07T04:53:42;15.3;;;7.2;;
80868;SDS011;70295;40.182;44.498;2023-09-07T04:55:42;17.6;;;8.7;;
80868;SDS011;70295;40.182;44.498;2023-09-07T04:57:42;15.2;;;7.7;;
80868;SDS011;70295;40.182;44.498;2023-09-07T04:59:42;15.1;;;8.2;;
80868;SDS011;70295;40.182;44.498;2023-09-07T05:01:42;16.9;;;7.7;;
80868;SDS011;70295;40.182;44.498;2023-09-07T05:03:42;16.5;;;7.8;;
80868;SDS011;70295;40.182;44.498;2023-09-07T05:05:42;15.7;;;7.8;;
80868;SDS011;70295;40.182;44.498;2023-09-07T05:13:47;14.2;;;7.6;;
80868;SDS011;70295;40.182;44.498;2023-09-07T05:15:48;12.2;;;7.3;;
80868;SDS011;70295;40.182;44.498;2023-09-07T05:17:47;14.9;;;7.1;;
80868;SDS011;70295;40.182;44.498;2023-09-07T05:19:47;14.4;;;6.9;;
80868;SDS011;70295;40.182;44.498;2023-09-07T05:21:47;13.1;;;7.1;;
80868;SDS011;70295;40.182;44.498;2023-09-07T05:23:47;16.8;;;7.1;;
80868;SDS011;70295;40.182;44.498;2023-09-07T05:25:49;15.5;;;7.5;;
80868;SDS011;70295;40.182;44.498;2023-09-07T05:27:48;11.4;;;6.9;;
80868;SDS011;70295;40.182;44.498;2023-09-07T05:30:33;13.7;;;7.2;;
80868;SDS011;70295;40.182;44.498;2023-09-07T05:32:33;15.3;;;8.2;;
80868;SDS011;70295;40.182;44.498;2023-09-07T05:34:33;15.7;;;7.4;;
80868;SDS011;70295;40.182;44.498;2023-09-07T05:36:33;14.6;;;7.4;;
80868;SDS011;70295;40.182;44.498;2023-09-07T05:38:33;16.8;;;7.5;;
80868;SDS011;70295;40.182;44.498;2023-09-07T05:40:35;14.6;;;6.7;;
80868;SDS011;70295;40.182;44.498;2023-09-07T05:42:33;14.9;;;7.5;;
80868;SDS011;70295;40.182;44.498;2023-09-07T05:44:33;13;;;6.8;;
80868;SDS011;70295;40.182;44.498;2023-09-07T05:46:34;20.3;;;7.6;;
80868;SDS011;70295;40.182;44.498;2023-09-07T05:48:33;15.9;;;7.3;;
80868;SDS011;70295;40.182;44.498;2023-09-07T05:50:34;13;;;7;;
80868;SDS011;70295;40.182;44.498;2023-09-07T05:52:33;15.3;;;7.5;;
80868;SDS011;70295;40.182;44.498;2023-09-07T05:54:33;15;;;7.5;;
80868;SDS011;70295;40.182;44.498;2023-09-07T05:56:33;16.8;;;7.4;;
80868;SDS011;70295;40.182;44.498;2023-09-07T05:58:33;20.4;;;8.4;;
80868;SDS011;70295;40.182;44.498;2023-09-07T06:02:33;13.5;;;7.7;;
80868;SDS011;70295;40.182;44.498;2023-09-07T06:04:33;16.4;;;8.1;;
80868;SDS011;70295;40.182;44.498;2023-09-07T06:06:33;16.5;;;8.2;;
80868;SDS011;70295;40.182;44.498;2023-09-07T06:08:33;14.5;;;7.7;;
80868;SDS011;70295;40.182;44.498;2023-09-07T06:10:33;13.7;;;7.4;;
80868;SDS011;70295;40.182;44.498;2023-09-07T06:12:33;14.9;;;7.6;;
80868;SDS011;70295;40.182;44.498;2023-09-07T06:14:33;16.6;;;7.4;;
80868;SDS011;70295;40.182;44.498;2023-09-07T06:16:33;12.3;;;7.4;;
80868;SDS011;70295;40.182;44.498;2023-09-07T06:18:34;14.8;;;7.6;;
80868;SDS011;70295;40.182;44.498;2023-09-07T06:20:33;12.6;;;7.4;;
80868;SDS011;70295;40.182;44.498;2023-09-07T06:22:33;14.4;;;7.1;;
80868;SDS011;70295;40.182;44.498;2023-09-07T06:24:33;15;;;7;;
80868;SDS011;70295;40.182;44.498;2023-09-07T06:26:33;12.1;;;7.4;;
80868;SDS011;70295;40.182;44.498;2023-09-07T06:28:33;13.9;;;8;;
80868;SDS011;70295;40.182;44.498;2023-09-07T06:30:33;14.8;;;7.5;;
80868;SDS011;70295;40.182;44.498;2023-09-07T06:32:33;16;;;7.8;;
80868;SDS011;70295;40.182;44.498;2023-09-07T06:34:33;16.8;;;8.3;;
80868;SDS011;70295;40.182;44.498;2023-09-07T06:36:33;18.1;;;8.3;;
80868;SDS011;70295;40.182;44.498;2023-09-07T06:38:33;15;;;8.3;;
80868;SDS011;70295;40.182;44.498;2023-09-07T06:40:33;14.9;;;8;;
80868;SDS011;70295;40.182;44.498;2023-09-07T06:42:33;15.2;;;7.8;;
80868;SDS011;70295;40.182;44.498;2023-09-07T06:44:35;15.5;;;8.1;;
80868;SDS011;70295;40.182;44.498;2023-09-07T06:46:33;14.3;;;8.4;;
80868;SDS011;70295;40.182;44.498;2023-09-07T06:48:33;17.1;;;7.9;;
80868;SDS011;70295;40.182;44.498;2023-09-07T06:50:33;16.7;;;7.7;;
80868;SDS011;70295;40.182;44.498;2023-09-07T06:52:33;15.2;;;8.2;;
80868;SDS011;70295;40.182;44.498;2023-09-07T06:54:33;16;;;8.9;;
80868;SDS011;70295;40.182;44.498;2023-09-07T06:56:33;16.2;;;7.6;;
80868;SDS011;70295;40.182;44.498;2023-09-07T06:58:33;14.1;;;7.3;;
80868;SDS011;70295;40.182;44.498;2023-09-07T07:00:33;13.7;;;7.3;;
80868;SDS011;70295;40.182;44.498;2023-09-07T07:02:33;17.5;;;7.7;;
80868;SDS011;70295;40.182;44.498;2023-09-07T07:04:33;14.8;;;7.4;;
80868;SDS011;70295;40.182;44.498;2023-09-07T07:06:33;19.4;;;7.9;;
80868;SDS011;70295;40.182;44.498;2023-09-07T07:08:33;16.7;;;7.7;;
80868;SDS011;70295;40.182;44.498;2023-09-07T07:10:33;16.1;;;8;;
80868;SDS011;70295;40.182;44.498;2023-09-07T07:12:33;12.7;;;7.1;;
80868;SDS011;70295;40.182;44.498;2023-09-07T07:14:33;12;;;7.5;;
80868;SDS011;70295;40.182;44.498;2023-09-07T07:16:33;14.8;;;8.8;;
80868;SDS011;70295;40.182;44.498;2023-09-07T07:18:33;13.6;;;7.8;;
80868;SDS011;70295;40.182;44.498;2023-09-07T07:20:33;10.6;;;6.6;;
80868;SDS011;70295;40.182;44.498;2023-09-07T07:22:33;13.7;;;6.9;;
80868;SDS011;70295;40.182;44.498;2023-09-07T07:31:07;12;;;7.4;;
80868;SDS011;70295;40.182;44.498;2023-09-07T07:33:05;13.8;;;7.2;;
80868;SDS011;70295;40.182;44.498;2023-09-07T07:35:06;12.3;;;7.8;;
80868;SDS011;70295;40.182;44.498;2023-09-07T07:37:05;12.3;;;7.1;;
80868;SDS011;70295;40.182;44.498;2023-09-07T07:39:05;11.5;;;7;;
80868;SDS011;70295;40.182;44.498;2023-09-07T07:41:05;13.7;;;7.2;;
80868;SDS011;70295;40.182;44.498;2023-09-07T07:43:05;14.3;;;7.4;;
80868;SDS011;70295;40.182;44.498;2023-09-07T07:45:06;14.3;;;7.6;;
80868;SDS011;70295;40.182;44.498;2023-09-07T07:47:05;15.6;;;7.3;;
80868;SDS011;70295;40.182;44.498;2023-09-07T07:49:05;13.3;;;7.5;;
80868;SDS011;70295;40.182;44.498;2023-09-07T07:51:06;13.7;;;7.1;;
80868;SDS011;70295;40.182;44.498;2023-09-07T07:53:05;13.2;;;6.9;;
80868;SDS011;70295;40.182;44.498;2023-09-07T07:55:05;15.1;;;7.4;;
80868;SDS011;70295;40.182;44.498;2023-09-07T07:57:05;15.9;;;8.7;;
80868;SDS011;70295;40.182;44.498;2023-09-07T07:59:05;12.1;;;6.5;;
80868;SDS011;70295;40.182;44.498;2023-09-07T08:03:06;13.7;;;7.2;;
80868;SDS011;70295;40.182;44.498;2023-09-07T08:05:06;13.2;;;7.8;;
80868;SDS011;70295;40.182;44.498;2023-09-07T08:07:05;12.8;;;7.1;;
80868;SDS011;70295;40.182;44.498;2023-09-07T08:09:05;14.2;;;7.6;;
80868;SDS011;70295;40.182;44.498;2023-09-07T08:11:06;15.7;;;8.1;;
80868;SDS011;70295;40.182;44.498;2023-09-07T08:13:05;13.7;;;7.3;;
80868;SDS011;70295;40.182;44.498;2023-09-07T08:15:06;13.7;;;7.6;;
80868;SDS011;70295;40.182;44.498;2023-09-07T08:17:05;12;;;6.7;;
80868;SDS011;70295;40.182;44.498;2023-09-07T08:19:05;12.5;;;6.9;;
80868;SDS011;70295;40.182;44.498;2023-09-07T08:21:05;16.7;;;7.7;;
80868;SDS011;70295;40.182;44.498;2023-09-07T08:23:06;12.4;;;6.9;;
80868;SDS011;70295;40.182;44.498;2023-09-07T08:25:06;15.9;;;7.7;;
80868;SDS011;70295;40.182;44.498;2023-09-07T08:27:05;12.8;;;6.6;;
80868;SDS011;70295;40.182;44.498;2023-09-07T08:29:05;14.2;;;7.6;;
80868;SDS011;70295;40.182;44.498;2023-09-07T08:31:05;14;;;7.4;;
80868;SDS011;70295;40.182;44.498;2023-09-07T08:33:05;10.9;;;6.9;;
80868;SDS011;70295;40.182;44.498;2023-09-07T08:35:05;13.7;;;6.9;;
80868;SDS011;70295;40.182;44.498;2023-09-07T08:37:05;11.4;;;6.8;;
80868;SDS011;70295;40.182;44.498;2023-09-07T08:39:07;12.6;;;6.4;;
80868;SDS011;70295;40.182;44.498;2023-09-07T08:41:06;17.2;;;7.2;;
80868;SDS011;70295;40.182;44.498;2023-09-07T08:43:05;12.8;;;6.9;;
80868;SDS011;70295;40.182;44.498;2023-09-07T08:45:08;12.7;;;7.1;;
80868;SDS011;70295;40.182;44.498;2023-09-07T08:47:07;12.6;;;6.8;;
80868;SDS011;70295;40.182;44.498;2023-09-07T08:49:05;10.6;;;6.6;;
80868;SDS011;70295;40.182;44.498;2023-09-07T08:51:05;13.5;;;6.8;;
80868;SDS011;70295;40.182;44.498;2023-09-07T08:55:06;10;;;6.6;;
80868;SDS011;70295;40.182;44.498;2023-09-07T08:57:05;13.5;;;6.7;;
80868;SDS011;70295;40.182;44.498;2023-09-07T08:59:05;11.3;;;7;;
80868;SDS011;70295;40.182;44.498;2023-09-07T09:01:05;11.1;;;6.7;;
80868;SDS011;70295;40.182;44.498;2023-09-07T09:03:05;14.3;;;6.9;;
80868;SDS011;70295;40.182;44.498;2023-09-07T09:05:05;12.8;;;7;;
80868;SDS011;70295;40.182;44.498;2023-09-07T09:07:05;11.5;;;6.5;;
80868;SDS011;70295;40.182;44.498;2023-09-07T09:09:05;12.3;;;6.7;;
80868;SDS011;70295;40.182;44.498;2023-09-07T09:11:05;12;;;7.1;;
80868;SDS011;70295;40.182;44.498;2023-09-07T09:13:05;12.1;;;6.2;;
80868;SDS011;70295;40.182;44.498;2023-09-07T09:15:06;12.7;;;6.5;;
80868;SDS011;70295;40.182;44.498;2023-09-07T09:17:05;10.6;;;6.6;;
80868;SDS011;70295;40.182;44.498;2023-09-07T09:19:05;13.6;;;7.3;;
80868;SDS011;70295;40.182;44.498;2023-09-07T09:21:05;14.4;;;6.8;;
80868;SDS011;70295;40.182;44.498;2023-09-07T09:23:06;11.1;;;6.4;;
80868;SDS011;70295;40.182;44.498;2023-09-07T09:25:07;10.9;;;7;;
80868;SDS011;70295;40.182;44.498;2023-09-07T09:27:05;13.1;;;6.3;;
80868;SDS011;70295;40.182;44.498;2023-09-07T09:29:05;15.1;;;7.3;;
80868;SDS011;70295;40.182;44.498;2023-09-07T09:31:06;11;;;5.9;;
80868;SDS011;70295;40.182;44.498;2023-09-07T09:41:45;11.7;;;6.3;;
80868;SDS011;70295;40.182;44.498;2023-09-07T09:51:52;10.2;;;6.3;;
80868;SDS011;70295;40.182;44.498;2023-09-07T09:53:51;9.8;;;6;;
80868;SDS011;70295;40.182;44.498;2023-09-07T09:55:52;12.1;;;6.1;;
80868;SDS011;70295;40.182;44.498;2023-09-07T09:57:51;11.6;;;5.8;;
80868;SDS011;70295;40.182;44.498;2023-09-07T09:59:51;10.2;;;5.9;;
80868;SDS011;70295;40.182;44.498;2023-09-07T10:01:51;9.6;;;6.7;;
80868;SDS011;70295;40.182;44.498;2023-09-07T10:03:53;8.3;;;6.2;;
80868;SDS011;70295;40.182;44.498;2023-09-07T10:05:51;10.4;;;6.2;;
80868;SDS011;70295;40.182;44.498;2023-09-07T10:07:51;9.4;;;5.4;;
80868;SDS011;70295;40.182;44.498;2023-09-07T10:09:55;8.6;;;5.8;;
80868;SDS011;70295;40.182;44.498;2023-09-07T10:11:53;11.7;;;6;;
80868;SDS011;70295;40.182;44.498;2023-09-07T10:13:56;11.4;;;6.1;;
80868;SDS011;70295;40.182;44.498;2023-09-07T10:15:59;8.9;;;5.5;;
80868;SDS011;70295;40.182;44.498;2023-09-07T10:18:02;10.8;;;6.3;;
80868;SDS011;70295;40.182;44.498;2023-09-07T10:20:01;13.1;;;6.4;;
80868;SDS011;70295;40.182;44.498;2023-09-07T10:21:53;11.7;;;6.6;;
80868;SDS011;70295;40.182;44.498;2023-09-07T10:23:53;12.4;;;6.5;;
80868;SDS011;70295;40.182;44.498;2023-09-07T10:25:52;11.1;;;6;;
80868;SDS011;70295;40.182;44.498;2023-09-07T10:27:51;10.1;;;5.9;;
80868;SDS011;70295;40.182;44.498;2023-09-07T10:29:52;13.3;;;6;;
80868;SDS011;70295;40.182;44.498;2023-09-07T10:31:53;11.7;;;5.5;;
80868;SDS011;70295;40.182;44.498;2023-09-07T10:33:51;11.8;;;5.7;;
80868;SDS011;70295;40.182;44.498;2023-09-07T10:35:51;10.8;;;5;;
80868;SDS011;70295;40.182;44.498;2023-09-07T10:37:51;12.5;;;5.2;;
80868;SDS011;70295;40.182;44.498;2023-09-07T10:39:52;8.7;;;5.4;;
80868;SDS011;70295;40.182;44.498;2023-09-07T10:41:51;13.3;;;5.3;;
80868;SDS011;70295;40.182;44.498;2023-09-07T10:43:53;11.8;;;6;;
80868;SDS011;70295;40.182;44.498;2023-09-07T10:45:51;11.7;;;5;;
80868;SDS011;70295;40.182;44.498;2023-09-07T10:47:51;8.2;;;5.3;;
80868;SDS011;70295;40.182;44.498;2023-09-07T10:49:51;11.2;;;5.7;;
80868;SDS011;70295;40.182;44.498;2023-09-07T10:51:51;8.4;;;5.2;;
80868;SDS011;70295;40.182;44.498;2023-09-07T10:53:51;9.3;;;5.6;;
80868;SDS011;70295;40.182;44.498;2023-09-07T10:55:51;10.3;;;6.2;;
80868;SDS011;70295;40.182;44.498;2023-09-07T10:57:51;12;;;6.3;;
80868;SDS011;70295;40.182;44.498;2023-09-07T10:59:51;13.4;;;6;;
80868;SDS011;70295;40.182;44.498;2023-09-07T11:01:51;10.8;;;6.1;;
80868;SDS011;70295;40.182;44.498;2023-09-07T11:03:51;15.1;;;8.8;;
80868;SDS011;70295;40.182;44.498;2023-09-07T11:07:51;9.4;;;5.4;;
80868;SDS011;70295;40.182;44.498;2023-09-07T11:09:53;10.7;;;5.4;;
80868;SDS011;70295;40.182;44.498;2023-09-07T11:11:51;8.7;;;5.1;;
80868;SDS011;70295;40.182;44.498;2023-09-07T11:13:52;9.4;;;5.3;;
80868;SDS011;70295;40.182;44.498;2023-09-07T11:15:56;10.6;;;5.3;;
80868;SDS011;70295;40.182;44.498;2023-09-07T11:17:52;10.6;;;5.6;;
80868;SDS011;70295;40.182;44.498;2023-09-07T11:19:53;10.9;;;6.3;;
80868;SDS011;70295;40.182;44.498;2023-09-07T11:21:53;9.1;;;5.2;;
80868;SDS011;70295;40.182;44.498;2023-09-07T11:23:52;11.1;;;6.2;;
80868;SDS011;70295;40.182;44.498;2023-09-07T11:25:51;14.9;;;8.3;;
80868;SDS011;70295;40.182;44.498;2023-09-07T11:27:55;16.9;;;8.1;;
80868;SDS011;70295;40.182;44.498;2023-09-07T11:29:52;9.7;;;5.6;;
80868;SDS011;70295;40.182;44.498;2023-09-07T11:31:51;10;;;5.2;;
80868;SDS011;70295;40.182;44.498;2023-09-07T11:33:51;10.3;;;5.6;;
80868;SDS011;70295;40.182;44.498;2023-09-07T11:35:51;11.3;;;6;;
80868;SDS011;70295;40.182;44.498;2023-09-07T11:37:53;9;;;6.3;;
80868;SDS011;70295;40.182;44.498;2023-09-07T11:39:51;9.9;;;6.3;;
80868;SDS011;70295;40.182;44.498;2023-09-07T11:41:51;8.9;;;6;;
80868;SDS011;70295;40.182;44.498;2023-09-07T11:43:51;11.5;;;6.2;;
80868;SDS011;70295;40.182;44.498;2023-09-07T11:45:52;11.5;;;5.8;;
80868;SDS011;70295;40.182;44.498;2023-09-07T11:47:51;11.1;;;6.1;;
80868;SDS011;70295;40.182;44.498;2023-09-07T11:49:51;12;;;5.9;;
80868;SDS011;70295;40.182;44.498;2023-09-07T11:51:51;10.4;;;6.5;;
80868;SDS011;70295;40.182;44.498;2023-09-07T11:53:51;11.4;;;6.1;;
80868;SDS011;70295;40.182;44.498;2023-09-07T11:55:51;11.6;;;7.9;;
80868;SDS011;70295;40.182;44.498;2023-09-07T11:57:51;13.1;;;7;;
80868;SDS011;70295;40.182;44.498;2023-09-07T11:59:51;9;;;6.2;;
80868;SDS011;70295;40.182;44.498;2023-09-07T12:01:51;10.9;;;5.4;;
80868;SDS011;70295;40.182;44.498;2023-09-07T12:03:51;13;;;5.8;;
80868;SDS011;70295;40.182;44.498;2023-09-07T12:05:51;10;;;5.7;;
80868;SDS011;70295;40.182;44.498;2023-09-07T12:07:51;10.6;;;6.4;;
80868;SDS011;70295;40.182;44.498;2023-09-07T12:09:51;9.5;;;6.8;;
80868;SDS011;70295;40.182;44.498;2023-09-07T12:11:51;8.6;;;5.5;;
80868;SDS011;70295;40.182;44.498;2023-09-07T12:13:51;13.6;;;7.3;;
80868;SDS011;70295;40.182;44.498;2023-09-07T12:15:51;10.3;;;6;;
80868;SDS011;70295;40.182;44.498;2023-09-07T12:17:51;9.9;;;6.2;;
80868;SDS011;70295;40.182;44.498;2023-09-07T12:19:52;10.2;;;6;;
80868;SDS011;70295;40.182;44.498;2023-09-07T12:21:51;8.2;;;5.5;;
80868;SDS011;70295;40.182;44.498;2023-09-07T12:23:51;11.4;;;8.2;;
80868;SDS011;70295;40.182;44.498;2023-09-07T12:25:51;8.2;;;5.7;;
80868;SDS011;70295;40.182;44.498;2023-09-07T12:27:51;12.3;;;7;;
80868;SDS011;70295;40.182;44.498;2023-09-07T12:29:51;10.6;;;6.2;;
80868;SDS011;70295;40.182;44.498;2023-09-07T12:31:51;12.7;;;7.4;;
80868;SDS011;70295;40.182;44.498;2023-09-07T12:33:51;9.7;;;6;;
80868;SDS011;70295;40.182;44.498;2023-09-07T12:35:51;11.5;;;5.9;;
80868;SDS011;70295;40.182;44.498;2023-09-07T12:37:51;10.5;;;5.8;;
80868;SDS011;70295;40.182;44.498;2023-09-07T12:39:51;10.5;;;5.9;;
80868;SDS011;70295;40.182;44.498;2023-09-07T12:41:51;10.7;;;5.2;;
80868;SDS011;70295;40.182;44.498;2023-09-07T12:43:51;12.2;;;6.6;;
80868;SDS011;70295;40.182;44.498;2023-09-07T12:45:51;11.2;;;7.2;;
80868;SDS011;70295;40.182;44.498;2023-09-07T12:47:51;11.9;;;6;;
80868;SDS011;70295;40.182;44.498;2023-09-07T12:49:51;9;;;5.7;;
80868;SDS011;70295;40.182;44.498;2023-09-07T12:51:51;8.4;;;5.3;;
80868;SDS011;70295;40.182;44.498;2023-09-07T12:53:51;11.4;;;6;;
80868;SDS011;70295;40.182;44.498;2023-09-07T12:55:51;9;;;5.6;;
80868;SDS011;70295;40.182;44.498;2023-09-07T12:57:51;10;;;5.8;;
80868;SDS011;70295;40.182;44.498;2023-09-07T12:59:51;10.8;;;5.9;;
80868;SDS011;70295;40.182;44.498;2023-09-07T13:01:51;9.9;;;5.9;;
80868;SDS011;70295;40.182;44.498;2023-09-07T13:03:51;13.4;;;7.6;;
80868;SDS011;70295;40.182;44.498;2023-09-07T13:05:51;11;;;6;;
80868;SDS011;70295;40.182;44.498;2023-09-07T13:07:51;9.7;;;5.8;;
80868;SDS011;70295;40.182;44.498;2023-09-07T13:09:51;8.9;;;5.7;;
80868;SDS011;70295;40.182;44.498;2023-09-07T13:11:51;10.6;;;5.4;;